Главная страница
METAR-TAF:

METAR-TAF

Аэропорты :

Ставангер, Норвегия

широта: 58-53N, долгота: 005-38E, высота над уровнем моря: 0 м

Текущие метеонаблюдения

Эта сводка был подготовлена 23 минут назад, в 20:20 UTC
Ветер 3 Узел от юго-западный
Температура 10°C
Влажность 66%
Давление 1010 hPa
Видимость 10 км и более
Нет облачности ниже 1500 м, и нет кучево-дождевой облачности

METAR: ENZV 132020Z 23003KT CAVOK 10/04 Q1010 RMK NOSIG

Время: 22:43 (20:43 UTC)

Прогноз

Эта сводка был подготовлена 3 часа и 43 минут назад, в 17:00 UTC
Прогноз действительный с 13-го 18 UTC до 14-го 18 UTC
Ветер 5 Узел переменных направлений
Видимость 10 км и более
небольшая облачность на высоте 1500 фута
Отдельные облака на высоте 2500 фута
изменения
С 14-го 02 UTC до 14-го 04 UTC
Ветер 15 Узел от юго-восточный

TAF: ENZV 131700Z 1318/1418 VRB05KT 9999 FEW015 SCT025 BECMG 1402/1404 14015KT

Метеонаблюдения и прогнозы для более 4000 аэропортов (сводки METAR и TAF).

Имеющиеся станции представлены на карте желтыми и красными точками.

Чтобы увидеть название станции, наведите на нее мышь.

Затем щелкните, чтобы увидеть метеонаблюдения и метеопрогнозы.

Управление картой: чтобы увеличить масштаб, щелкните зеленые кнопки с черным крестиком; чтобы уменьшить масштаб, щелкните зеленую кнопку с тире; для просмотра соседних карт щелкайте зеленые стрелки.


METAR-TAF: